Time;durP1;ratioP1;P1;durP2;ratioP2;P2;SDS_P1;SDS_P2;PMS_P1;PMS_P2;Temp;Humidity;BMP_temperature;BMP_pressure;BME280_temperature;BME280_humidity;BME280_pressure;Samples;Min_cycle;Max_cycle;Signal;HPM_P1;HPM_P2
2024/01/27 00:03:28;;;;;;;4.60;2.30;;;;;;;17.95;54.46;98293.81;10359881;28;20073;-36
2024/01/27 00:08:28;;;;;;;5.17;2.47;;;;;;;17.94;54.44;98293.75;10360716;28;20041;-37
2024/01/27 00:13:29;;;;;;;4.80;2.10;;;;;;;17.94;53.79;98296.28;10365297;28;20033;-39
2024/01/27 00:18:29;;;;;;;4.50;2.50;;;;;;;17.93;53.94;98294.59;10368244;28;20037;-41
2024/01/27 00:23:30;;;;;;;4.83;1.83;;;;;;;17.94;54.42;98291.22;10367397;28;20032;-36
2024/01/27 00:28:30;;;;;;;3.28;2.17;;;;;;;17.94;53.79;98286.16;10367718;28;20034;-39
2024/01/27 00:33:33;;;;;;;4.80;2.00;;;;;;;17.91;53.95;98291.16;10367050;28;20036;-40
2024/01/27 00:38:33;;;;;;;4.03;1.90;;;;;;;17.93;53.63;98292.03;10367525;28;20371;-38
2024/01/27 00:43:33;;;;;;;5.93;2.10;;;;;;;17.93;53.85;98292.03;10366435;28;20030;-39
2024/01/27 00:48:34;;;;;;;3.80;1.83;;;;;;;17.92;53.79;98290.34;10366428;28;20096;-41
2024/01/27 00:53:34;;;;;;;3.47;1.70;;;;;;;17.92;53.00;98296.25;10366758;28;20034;-38
2024/01/27 00:58:34;;;;;;;2.90;1.40;;;;;;;17.92;53.21;98290.34;10365436;28;20592;-40
2024/01/27 01:03:35;;;;;;;4.68;2.20;;;;;;;17.91;53.24;98291.16;10364216;28;20045;-43
2024/01/27 01:08:36;;;;;;;4.05;1.92;;;;;;;17.90;53.16;98289.44;10366234;28;20052;-39
2024/01/27 01:13:36;;;;;;;4.20;1.50;;;;;;;17.91;53.67;98293.69;10364968;28;20036;-38
2024/01/27 01:18:37;;;;;;;4.15;1.85;;;;;;;17.90;53.05;98300.41;10363871;28;20026;-39
2024/01/27 01:23:37;;;;;;;4.37;2.00;;;;;;;17.90;53.08;98318.16;10365032;28;20026;-39
2024/01/27 01:28:37;;;;;;;2.23;1.30;;;;;;;17.93;53.13;98322.47;10364538;28;20284;-41
2024/01/27 01:33:38;;;;;;;4.67;1.90;;;;;;;17.92;53.63;98318.22;10364775;28;20109;-39
2024/01/27 01:38:38;;;;;;;3.97;1.47;;;;;;;17.93;53.22;98319.91;10365338;28;20026;-38
2024/01/27 01:43:38;;;;;;;2.65;1.23;;;;;;;17.92;52.85;98329.19;10363543;28;20040;-38
2024/01/27 01:48:39;;;;;;;4.33;1.80;;;;;;;17.93;52.82;98342.72;10364197;28;20026;-39
2024/01/27 01:53:39;;;;;;;2.28;1.30;;;;;;;17.91;52.46;98337.59;10364631;28;20300;-42
2024/01/27 01:58:40;;;;;;;2.05;1.23;;;;;;;17.93;51.99;98340.19;10362901;28;20037;-38
2024/01/27 02:03:51;;;;;;;5.18;1.85;;;;;;;17.92;52.89;98339.31;10363170;28;20109;-39
2024/01/27 02:08:51;;;;;;;3.92;1.85;;;;;;;17.91;52.83;98345.22;10364023;28;20026;-39
2024/01/27 02:13:52;;;;;;;2.30;1.30;;;;;;;17.92;52.95;98352.00;10363185;28;20025;-40
2024/01/27 02:18:52;;;;;;;2.20;1.30;;;;;;;17.91;52.73;98351.97;10363505;28;20088;-39
2024/01/27 02:23:53;;;;;;;3.43;1.50;;;;;;;17.90;52.96;98360.41;10361960;28;20030;-36
2024/01/27 02:28:53;;;;;;;2.57;1.40;;;;;;;17.90;52.79;98353.63;10362887;28;20045;-36
2024/01/27 02:33:53;;;;;;;3.47;1.50;;;;;;;17.88;52.58;98359.47;10362166;28;20812;-39
2024/01/27 02:38:54;;;;;;;4.70;1.88;;;;;;;17.89;52.39;98356.97;10362496;28;20166;-37
2024/01/27 02:43:54;;;;;;;3.13;1.33;;;;;;;17.89;52.71;98356.97;10361817;28;20074;-37
2024/01/27 02:48:55;;;;;;;2.73;1.23;;;;;;;17.89;52.70;98348.50;10362083;28;20807;-36
2024/01/27 02:53:55;;;;;;;2.20;1.07;;;;;;;17.88;52.60;98340.06;10358327;28;20304;-42
2024/01/27 02:58:55;;;;;;;3.97;1.53;;;;;;;17.89;52.44;98348.50;10362606;28;20033;-39
2024/01/27 03:03:56;;;;;;;2.07;0.93;;;;;;;17.90;52.03;98350.25;10361209;28;20147;-41
2024/01/27 03:08:56;;;;;;;3.23;1.10;;;;;;;17.88;52.27;98354.41;10360667;28;20115;-41
2024/01/27 03:13:58;;;;;;;2.60;1.50;;;;;;;17.89;51.64;98367.13;10361644;28;20030;-39
2024/01/27 03:18:59;;;;;;;2.30;1.02;;;;;;;17.89;51.16;98366.25;10361255;28;20312;-40
2024/01/27 03:23:59;;;;;;;2.00;0.97;;;;;;;17.88;52.13;98375.53;10360390;28;21873;-39
2024/01/27 03:28:59;;;;;;;4.07;1.30;;;;;;;17.89;52.15;98371.31;10359941;28;20454;-38
2024/01/27 03:34:02;;;;;;;2.33;1.10;;;;;;;17.85;51.77;98377.13;10360557;28;20057;-37
2024/01/27 03:39:03;;;;;;;2.90;1.20;;;;;;;17.87;51.32;98381.44;10360778;28;20489;-37
2024/01/27 03:44:04;;;;;;;1.10;0.95;;;;;;;17.88;49.88;98374.66;10360770;28;20108;-40
2024/01/27 03:49:04;;;;;;;2.17;1.00;;;;;;;17.86;50.76;98374.66;10368306;28;20030;-41
2024/01/27 03:54:06;;;;;;;6.53;1.55;;;;;;;17.89;50.60;98373.84;10368208;28;20034;-38
2024/01/27 03:59:09;;;;;;;1.83;0.82;;;;;;;17.85;50.89;98385.59;10368950;28;20681;-38
2024/01/27 04:04:09;;;;;;;1.65;0.88;;;;;;;17.86;50.62;98386.44;10367091;28;20096;-41
2024/01/27 04:09:09;;;;;;;3.10;0.73;;;;;;;17.86;50.71;98394.03;10367634;28;20502;-36
2024/01/27 04:14:10;;;;;;;2.57;1.27;;;;;;;17.85;51.00;98388.13;10368407;28;20659;-36
2024/01/27 04:19:10;;;;;;;2.53;0.90;;;;;;;17.87;50.73;98400.81;10367253;28;20300;-39
2024/01/27 04:24:11;;;;;;;3.00;1.33;;;;;;;17.86;50.65;98404.19;10366935;28;20036;-37
2024/01/27 04:29:14;;;;;;;2.23;0.93;;;;;;;17.84;51.07;98401.59;10368049;28;20666;-41
2024/01/27 04:34:15;;;;;;;1.88;1.33;;;;;;;17.85;50.21;98402.47;10366640;28;20296;-38
2024/01/27 04:39:15;;;;;;;2.87;1.10;;;;;;;17.84;50.52;98395.69;10366509;28;20041;-41
2024/01/27 04:44:15;;;;;;;1.10;0.70;;;;;;;17.85;50.77;98398.28;10367395;28;20606;-39
2024/01/27 04:49:16;;;;;;;1.87;1.00;;;;;;;17.82;51.33;98392.25;10366406;28;20045;-36
2024/01/27 04:54:16;;;;;;;1.70;0.73;;;;;;;17.84;50.05;98395.69;10365201;28;20504;-40
2024/01/27 04:59:17;;;;;;;4.00;1.00;;;;;;;17.85;50.42;98397.41;10365650;28;20493;-39
2024/01/27 05:04:17;;;;;;;1.77;1.20;;;;;;;17.83;50.27;98409.16;10365206;28;20037;-38
2024/01/27 05:09:17;;;;;;;2.50;1.10;;;;;;;17.85;50.10;98405.88;10364721;28;20562;-37
2024/01/27 05:14:18;;;;;;;1.60;0.80;;;;;;;17.81;50.16;98390.50;10365963;28;20037;-37
2024/01/27 05:19:18;;;;;;;2.03;1.25;;;;;;;17.85;50.17;98392.31;10365445;28;20030;-40
2024/01/27 05:24:19;;;;;;;2.07;0.83;;;;;;;17.85;50.11;98397.41;10363820;28;20026;-39
2024/01/27 05:29:19;;;;;;;3.55;1.00;;;;;;;17.82;49.70;98393.09;10365647;28;20038;-40
2024/01/27 05:34:21;;;;;;;0.60;0.57;;;;;;;17.83;49.57;98389.75;10364266;28;20375;-39
2024/01/27 05:39:21;;;;;;;1.77;1.10;;;;;;;17.85;50.14;98402.47;10365090;28;20304;-39
2024/01/27 05:44:22;;;;;;;1.77;0.90;;;;;;;17.85;49.96;98402.47;10364985;28;20026;-39
2024/01/27 05:49:22;;;;;;;2.30;0.77;;;;;;;17.84;50.01;98421.84;10363738;28;20044;-36
2024/01/27 05:54:24;;;;;;;3.80;0.87;;;;;;;17.84;49.54;98421.03;10362989;28;20038;-40
2024/01/27 05:59:24;;;;;;;2.58;1.27;;;;;;;17.84;49.50;98426.09;10363766;28;20049;-42
2024/01/27 06:04:24;;;;;;;2.27;0.83;;;;;;;17.83;49.33;98429.44;10363508;28;20100;-40
2024/01/27 06:09:25;;;;;;;1.92;0.90;;;;;;;17.83;49.38;98414.22;10363246;28;20044;-39
2024/01/27 06:14:25;;;;;;;1.70;1.07;;;;;;;17.83;49.54;98404.09;10363193;28;20046;-36
2024/01/27 06:19:26;;;;;;;2.17;0.80;;;;;;;17.86;48.90;98409.25;10362519;28;20292;-38
2024/01/27 06:24:26;;;;;;;2.38;1.85;;;;;;;17.85;47.99;98422.72;10362709;28;20084;-37
2024/01/27 06:29:27;;;;;;;3.27;1.20;;;;;;;17.86;48.34;98425.31;10363881;28;20022;-37
2024/01/27 06:34:27;;;;;;;2.23;0.90;;;;;;;17.87;48.49;98421.09;10362095;28;20042;-38
2024/01/27 06:39:29;;;;;;;3.97;0.83;;;;;;;17.87;48.96;98436.31;10362281;28;20504;-36
2024/01/27 06:44:29;;;;;;;2.38;1.33;;;;;;;17.87;48.92;98423.63;10361354;28;20638;-37
2024/01/27 06:49:29;;;;;;;1.23;0.90;;;;;;;17.90;46.96;98413.59;10360869;28;20129;-36
2024/01/27 06:54:30;;;;;;;4.17;1.03;;;;;;;17.91;48.49;98411.09;10360933;28;20448;-35
2024/01/27 06:59:30;;;;;;;2.03;1.00;;;;;;;17.93;47.12;98408.63;10359869;28;20044;-40
2024/01/27 07:04:30;;;;;;;1.13;0.80;;;;;;;17.93;47.01;98408.63;10361669;28;20030;-39
2024/01/27 07:09:31;;;;;;;3.90;1.07;;;;;;;17.91;46.28;98407.72;10360538;28;20026;-40
2024/01/27 07:14:31;;;;;;;1.60;0.80;;;;;;;17.91;46.26;98400.13;10361523;28;20126;-40
2024/01/27 07:19:32;;;;;;;1.27;1.17;;;;;;;17.89;46.75;98410.19;10359454;28;20064;-41
2024/01/27 07:24:32;;;;;;;2.40;1.38;;;;;;;17.92;47.92;98406.91;10360057;28;20456;-42
2024/01/27 07:29:32;;;;;;;1.90;1.30;;;;;;;17.95;46.68;98419.66;10360822;28;20034;-40
2024/01/27 07:34:33;;;;;;;1.77;0.90;;;;;;;17.95;46.08;98414.56;10360045;28;20639;-40
2024/01/27 07:39:33;;;;;;;2.55;1.40;;;;;;;17.94;45.39;98433.13;10359444;28;20601;-39
2024/01/27 07:44:34;;;;;;;3.15;1.50;;;;;;;17.92;45.07;98434.78;10360422;28;20030;-38
2024/01/27 07:49:34;;;;;;;3.03;1.20;;;;;;;17.93;46.23;98421.28;10360403;28;20046;-40
2024/01/27 07:54:38;;;;;;;3.57;1.83;;;;;;;17.98;46.20;98422.28;10359499;28;20865;-39
2024/01/27 07:59:39;;;;;;;5.10;1.42;;;;;;;17.97;46.63;98407.88;10360986;28;20280;-36
2024/01/27 08:04:39;;;;;;;7.15;1.38;;;;;;;17.97;45.86;98403.69;10358424;28;20504;-41
2024/01/27 08:09:40;;;;;;;3.40;1.53;;;;;;;17.95;45.74;98389.22;10360318;28;20034;-38
2024/01/27 08:14:40;;;;;;;2.20;1.50;;;;;;;17.94;46.43;98402.72;10360676;28;20497;-40
2024/01/27 08:19:41;;;;;;;3.80;1.47;;;;;;;17.92;48.36;98404.38;10358203;28;20048;-41
2024/01/27 08:24:41;;;;;;;5.67;1.53;;;;;;;17.91;48.81;98407.72;10358260;28;20088;-40
2024/01/27 08:29:41;;;;;;;2.03;1.37;;;;;;;17.96;49.20;98426.44;10359022;28;20700;-38
2024/01/27 08:34:42;;;;;;;3.43;1.33;;;;;;;17.94;49.10;98428.94;10362243;28;20037;-36
2024/01/27 08:39:42;;;;;;;4.03;2.07;;;;;;;17.95;49.88;98424.72;10352288;28;20029;-39
2024/01/27 08:44:42;;;;;;;7.80;1.93;;;;;;;17.94;49.21;98428.06;10363987;28;20030;-38
2024/01/27 08:49:43;;;;;;;6.00;2.40;;;;;;;17.94;49.08;98423.00;10358502;28;20030;-37
2024/01/27 08:54:43;;;;;;;7.63;2.37;;;;;;;17.92;48.07;98417.03;10351594;28;20045;-34
2024/01/27 08:59:45;;;;;;;6.20;2.40;;;;;;;17.94;49.01;98417.94;10363400;28;20046;-40
2024/01/27 09:04:46;;;;;;;4.55;2.55;;;;;;;17.94;49.46;98412.88;10363289;28;20068;-40
2024/01/27 09:09:46;;;;;;;4.50;2.07;;;;;;;17.91;48.92;98418.69;10361135;28;20026;-39
2024/01/27 09:14:47;;;;;;;5.43;2.47;;;;;;;17.75;47.86;98430.88;10361420;28;20034;-38
2024/01/27 09:19:47;;;;;;;3.20;1.80;;;;;;;17.65;47.16;98413.69;10362499;28;20041;-40
2024/01/27 09:24:47;;;;;;;3.22;1.40;;;;;;;17.59;50.31;98404.22;10364200;28;20033;-39
2024/01/27 09:29:48;;;;;;;4.43;1.90;;;;;;;17.57;49.18;98398.25;10365333;28;20034;-39
2024/01/27 09:34:48;;;;;;;6.18;1.40;;;;;;;17.59;50.51;98393.25;10364523;28;20039;-40
2024/01/27 09:39:49;;;;;;;3.83;1.40;;;;;;;17.59;48.41;98388.19;10362757;28;20056;-39
2024/01/27 09:44:49;;;;;;;2.67;1.50;;;;;;;17.62;50.63;98388.25;10362531;28;20373;-38
2024/01/27 09:49:51;;;;;;;10.98;1.45;;;;;;;17.60;50.65;98385.69;10364437;28;20315;-37
2024/01/27 09:54:52;;;;;;;4.00;1.58;;;;;;;17.58;51.20;98386.47;10363937;28;20478;-39
2024/01/27 09:59:53;;;;;;;8.02;1.58;;;;;;;17.57;51.62;98380.53;10364830;28;20393;-42
2024/01/27 10:04:54;;;;;;;6.13;1.58;;;;;;;17.62;52.09;98384.06;10363149;28;20026;-41
2024/01/27 10:09:54;;;;;;;9.45;1.65;;;;;;;17.62;52.19;98379.00;10362310;28;20110;-41
2024/01/27 10:14:55;;;;;;;6.40;2.40;;;;;;;17.61;52.37;98364.63;10362229;28;20099;-39
2024/01/27 10:20:07;;;;;;;7.53;1.60;;;;;;;17.66;52.37;98359.69;10362673;28;20057;-38
2024/01/27 10:25:09;;;;;;;3.92;1.48;;;;;;;17.61;51.79;98356.16;10337791;28;20517;-39
2024/01/27 10:30:17;;;;;;;14.80;2.75;;;;;;;17.86;50.10;98361.09;10360397;28;20125;-39
2024/01/27 10:35:20;;;;;;;5.35;1.55;;;;;;;17.93;49.44;98361.31;10359488;28;20065;-39
2024/01/27 10:40:21;;;;;;;7.95;1.77;;;;;;;18.00;48.82;98352.22;10359868;28;20155;-41
2024/01/27 10:45:21;;;;;;;7.90;1.58;;;;;;;17.84;51.53;98347.53;10361653;28;20072;-37
2024/01/27 10:50:23;;;;;;;7.53;1.45;;;;;;;17.71;52.18;98342.94;10376087;28;20084;-41
2024/01/27 10:55:24;;;;;;;9.63;2.00;;;;;;;17.71;51.74;98340.41;10359945;28;20120;-38
2024/01/27 11:00:26;;;;;;;18.67;5.63;;;;;;;17.67;51.40;98326.78;10361258;28;20529;-36
2024/01/27 11:05:29;;;;;;;4.15;1.45;;;;;;;17.61;52.09;98334.22;10365174;28;20029;-36
2024/01/27 11:10:35;;;;;;;7.60;1.38;;;;;;;17.71;51.30;98332.78;10359153;28;20041;-36
2024/01/27 11:15:35;;;;;;;4.83;1.43;;;;;;;17.61;52.09;98325.75;10363428;28;20616;-39
2024/01/27 11:20:36;;;;;;;4.33;0.97;;;;;;;17.56;52.67;98312.13;10363582;28;20038;-39
2024/01/27 11:25:37;;;;;;;3.53;1.38;;;;;;;17.61;52.70;98313.09;10360130;28;20303;-36
2024/01/27 11:30:39;;;;;;;6.43;1.57;;;;;;;17.61;52.82;98310.56;10362919;28;20474;-39
2024/01/27 11:35:40;;;;;;;4.07;1.30;;;;;;;17.65;52.56;98307.31;10361935;28;20324;-41
2024/01/27 11:40:46;;;;;;;11.00;1.40;;;;;;;17.61;53.27;98295.34;10361590;28;20133;-39
2024/01/27 11:45:57;;;;;;;8.52;1.75;;;;;;;17.59;52.36;98292.78;10361421;28;20021;-39
2024/01/27 11:51:11;;;;;;;5.63;2.30;;;;;;;17.57;50.95;98298.63;10362064;28;20525;-36
2024/01/27 11:56:11;;;;;;;6.32;1.42;;;;;;;17.57;50.53;98298.63;10359338;28;20061;-38
2024/01/27 12:01:12;;;;;;;7.35;1.48;;;;;;;17.77;50.35;98293.31;10362448;28;20033;-35
2024/01/27 12:06:12;;;;;;;10.10;1.67;;;;;;;17.83;51.34;98287.56;10361584;28;20029;-36
2024/01/27 12:11:14;;;;;;;8.45;1.95;;;;;;;17.80;52.41;98295.03;10366522;28;20574;-40
2024/01/27 12:16:15;;;;;;;10.48;1.73;;;;;;;17.38;48.22;98281.19;10366846;28;20399;-39
2024/01/27 12:21:19;;;;;;;10.15;2.78;;;;;;;17.45;51.90;98283.06;10365340;28;20037;-38
2024/01/27 12:26:21;;;;;;;10.70;2.83;;;;;;;17.55;53.57;98274.91;10367391;28;20064;-40
2024/01/27 12:31:23;;;;;;;2.70;1.30;;;;;;;17.56;54.85;98271.59;10370608;28;20028;-36
2024/01/27 12:36:23;;;;;;;3.13;1.33;;;;;;;17.55;54.62;98264.78;10369462;28;20041;-37
2024/01/27 12:41:25;;;;;;;7.20;1.40;;;;;;;17.53;54.67;98263.91;10368520;28;20053;-36
2024/01/27 12:46:26;;;;;;;2.80;1.15;;;;;;;17.51;54.81;98257.94;10369795;28;20069;-37
2024/01/27 12:51:27;;;;;;;4.50;1.33;;;;;;;17.50;55.03;98264.66;10369241;28;20080;-32
2024/01/27 12:56:29;;;;;;;4.50;1.30;;;;;;;17.50;54.80;98256.22;10369237;28;20080;-33
2024/01/27 13:01:30;;;;;;;4.50;1.13;;;;;;;17.48;54.78;98243.50;10369989;28;20044;-38
2024/01/27 13:06:30;;;;;;;5.73;1.40;;;;;;;17.45;54.84;98237.50;10399985;28;20500;-38
2024/01/27 13:11:31;;;;;;;3.92;1.25;;;;;;;17.42;54.64;98230.66;10368570;28;20073;-35
2024/01/27 13:16:31;;;;;;;3.77;1.17;;;;;;;17.42;54.72;98233.19;10369201;28;20409;-35
2024/01/27 13:21:34;;;;;;;2.05;1.20;;;;;;;17.40;54.87;98224.72;10366845;28;20299;-33
2024/01/27 13:26:37;;;;;;;1.50;0.90;;;;;;;17.40;54.64;98218.81;10368088;28;20699;-34
2024/01/27 13:31:37;;;;;;;1.48;0.90;;;;;;;17.36;54.28;98222.94;10367160;28;21193;-34
2024/01/27 13:36:38;;;;;;;3.63;0.83;;;;;;;17.37;54.66;98213.63;10367698;28;20103;-37
2024/01/27 13:41:38;;;;;;;2.20;0.90;;;;;;;17.35;54.89;98205.13;10367925;28;20033;-33
2024/01/27 13:46:39;;;;;;;3.40;1.20;;;;;;;17.39;54.56;98196.81;10367870;28;20284;-33
2024/01/27 13:51:39;;;;;;;3.22;1.23;;;;;;;17.37;54.35;98194.25;10367087;28;20485;-37
2024/01/27 13:56:39;;;;;;;6.43;1.07;;;;;;;17.36;54.21;98181.53;10366169;28;20524;-37
2024/01/27 14:01:40;;;;;;;2.30;0.73;;;;;;;17.38;54.57;98179.91;10367273;28;20124;-37
2024/01/27 14:06:40;;;;;;;1.70;0.87;;;;;;;17.37;54.63;98184.13;10365835;28;20034;-37
2024/01/27 14:11:41;;;;;;;1.30;0.73;;;;;;;17.37;54.81;98186.66;10365754;28;20045;-36
2024/01/27 14:16:44;;;;;;;1.87;0.93;;;;;;;17.36;54.68;98191.69;10366627;28;20030;-33
2024/01/27 14:21:45;;;;;;;3.03;0.80;;;;;;;17.35;54.84;98190.81;10364758;28;20033;-36
2024/01/27 14:26:45;;;;;;;2.87;1.00;;;;;;;17.37;54.92;98193.38;10365436;28;20038;-36
2024/01/27 14:31:46;;;;;;;2.47;0.67;;;;;;;17.34;54.90;98203.41;10365779;28;20399;-34
2024/01/27 14:36:46;;;;;;;3.53;0.90;;;;;;;17.35;54.76;98205.13;10364533;28;20034;-36
2024/01/27 14:41:47;;;;;;;1.53;0.90;;;;;;;17.34;54.96;98211.00;10379746;28;20033;-37
2024/01/27 14:46:47;;;;;;;1.00;0.90;;;;;;;17.33;54.78;98220.25;10365306;28;20030;-35
2024/01/27 14:51:47;;;;;;;2.00;0.90;;;;;;;17.31;54.80;98223.59;10364415;28;20040;-33
2024/01/27 14:56:48;;;;;;;1.23;0.75;;;;;;;17.32;54.71;98232.88;10363621;28;20048;-35
2024/01/27 15:01:49;;;;;;;2.90;1.00;;;;;;;17.30;54.62;98225.25;10365048;28;20044;-37
2024/01/27 15:06:50;;;;;;;1.27;0.80;;;;;;;17.31;55.03;98231.19;10364051;28;20030;-38
2024/01/27 15:11:51;;;;;;;1.20;0.63;;;;;;;17.30;54.90;98231.97;10362622;28;20045;-37
2024/01/27 15:16:51;;;;;;;3.10;0.88;;;;;;;17.33;54.45;98229.53;10364310;28;20037;-35
2024/01/27 15:21:51;;;;;;;1.07;0.73;;;;;;;17.31;54.62;98241.31;10362900;28;20068;-35
2024/01/27 15:26:53;;;;;;;3.80;0.77;;;;;;;17.31;54.46;98238.78;10363456;28;20352;-37
2024/01/27 15:31:53;;;;;;;2.35;1.40;;;;;;;17.30;54.57;98237.91;10364054;28;20069;-36
2024/01/27 15:36:53;;;;;;;1.17;0.83;;;;;;;17.29;54.34;98237.84;10362908;28;20133;-35
2024/01/27 15:41:54;;;;;;;2.70;1.63;;;;;;;17.27;54.88;98234.41;10367690;28;20069;-37
2024/01/27 15:46:56;;;;;;;1.15;0.70;;;;;;;17.27;54.75;98242.88;10376507;28;20798;-36
2024/01/27 15:51:56;;;;;;;1.77;1.02;;;;;;;17.27;54.32;98236.94;10377341;28;20156;-37
2024/01/27 15:56:57;;;;;;;1.57;1.10;;;;;;;17.25;54.53;98239.44;10376191;28;20038;-35
2024/01/27 16:01:57;;;;;;;1.13;0.50;;;;;;;17.26;54.58;98250.44;10376648;28;20338;-36
2024/01/27 16:06:57;;;;;;;1.73;0.77;;;;;;;17.22;54.18;98239.34;10375848;28;20821;-37
2024/01/27 16:11:58;;;;;;;1.47;0.50;;;;;;;17.24;54.51;98242.78;10375764;28;20052;-37
2024/01/27 16:16:58;;;;;;;0.60;0.57;;;;;;;17.24;54.62;98247.00;10376420;28;20963;-36
2024/01/27 16:21:58;;;;;;;1.13;0.60;;;;;;;17.24;54.40;98247.84;10375382;28;20098;-35
2024/01/27 16:26:59;;;;;;;1.53;0.70;;;;;;;17.23;54.22;98245.28;10375366;28;20049;-38
2024/01/27 16:32:00;;;;;;;0.60;0.50;;;;;;;17.24;54.15;98244.47;10376614;28;20556;-36
2024/01/27 16:37:00;;;;;;;2.05;0.90;;;;;;;17.22;54.20;98244.41;10374859;28;20034;-37
2024/01/27 16:42:00;;;;;;;1.10;0.63;;;;;;;17.22;54.15;98244.41;10375262;28;20040;-37
2024/01/27 16:47:01;;;;;;;1.00;0.87;;;;;;;17.22;54.20;98246.94;10375223;28;20291;-37
2024/01/27 16:52:02;;;;;;;0.70;0.50;;;;;;;17.23;54.14;98242.75;10375025;28;20034;-36
2024/01/27 16:57:02;;;;;;;1.10;0.80;;;;;;;17.24;53.75;98247.00;10368284;28;20034;-33
2024/01/27 17:02:04;;;;;;;1.10;0.70;;;;;;;17.23;54.28;98240.22;10369275;28;20481;-35
2024/01/27 17:07:08;;;;;;;1.88;0.73;;;;;;;17.23;53.67;98245.28;10368848;28;20096;-35
2024/01/27 17:12:10;;;;;;;0.98;0.68;;;;;;;17.22;54.10;98238.47;10367502;28;20454;-35
2024/01/27 17:17:10;;;;;;;0.75;0.55;;;;;;;17.18;54.24;98237.56;10368562;28;20418;-37
2024/01/27 17:22:11;;;;;;;0.77;0.60;;;;;;;17.22;54.07;98243.53;10367849;28;20042;-33
2024/01/27 17:27:11;;;;;;;1.30;0.60;;;;;;;17.21;53.84;98247.75;10367506;28;20084;-36
2024/01/27 17:32:11;;;;;;;1.07;0.77;;;;;;;17.20;54.11;98251.09;10368075;28;20042;-38
2024/01/27 17:37:12;;;;;;;1.17;0.98;;;;;;;17.21;53.90;98257.88;10366735;28;20121;-36
2024/01/27 17:42:12;;;;;;;0.80;0.63;;;;;;;17.19;54.04;98249.41;10366698;28;20104;-34
2024/01/27 17:47:13;;;;;;;0.90;0.70;;;;;;;17.20;54.15;98245.19;10367853;28;20386;-36
2024/01/27 17:52:13;;;;;;;0.88;0.68;;;;;;;17.20;53.93;98242.66;10366452;28;20030;-34
2024/01/27 17:57:13;;;;;;;1.23;0.80;;;;;;;17.19;53.93;98241.81;10366007;28;20093;-36
2024/01/27 18:02:14;;;;;;;1.93;0.87;;;;;;;17.21;54.01;98244.34;10365715;28;20575;-34
2024/01/27 18:07:14;;;;;;;1.30;0.87;;;;;;;17.19;54.25;98254.47;10366512;28;20289;-36
2024/01/27 18:12:14;;;;;;;1.67;1.10;;;;;;;17.20;53.54;98252.78;10365444;28;20049;-37
2024/01/27 18:17:15;;;;;;;1.00;0.50;;;;;;;17.17;54.12;98261.13;10365240;28;20034;-38
2024/01/27 18:22:15;;;;;;;1.10;0.70;;;;;;;17.19;53.97;98266.25;10366113;28;20076;-37
2024/01/27 18:27:16;;;;;;;0.80;0.60;;;;;;;17.20;53.86;98275.53;10364875;28;20038;-39
2024/01/27 18:32:16;;;;;;;2.13;0.80;;;;;;;17.17;54.31;98271.25;10364412;28;20041;-37
2024/01/27 18:37:16;;;;;;;1.17;0.73;;;;;;;17.18;53.88;98272.13;10365774;28;20040;-37
2024/01/27 18:42:17;;;;;;;1.20;0.97;;;;;;;17.19;53.80;98277.25;10364385;28;20038;-35
2024/01/27 18:47:17;;;;;;;1.27;0.80;;;;;;;17.18;53.86;98277.19;10365136;28;20033;-37
2024/01/27 18:52:17;;;;;;;1.80;0.80;;;;;;;17.17;54.02;98271.25;10365226;28;20505;-38
2024/01/27 18:57:19;;;;;;;1.00;0.60;;;;;;;17.18;53.83;98279.72;10364044;28;20034;-35
2024/01/27 19:02:19;;;;;;;1.25;0.93;;;;;;;17.18;53.72;98265.41;10364067;28;20076;-36
2024/01/27 19:07:19;;;;;;;1.07;0.80;;;;;;;17.16;53.87;98251.81;10364836;28;20034;-38
2024/01/27 19:12:20;;;;;;;1.10;0.67;;;;;;;17.17;53.47;98250.16;10363490;28;20042;-39
2024/01/27 19:17:20;;;;;;;0.80;0.70;;;;;;;17.15;53.90;98244.19;10363076;28;20045;-38
2024/01/27 19:22:20;;;;;;;1.00;0.90;;;;;;;17.15;53.39;98237.44;10363481;28;20046;-36
2024/01/27 19:27:21;;;;;;;2.30;0.93;;;;;;;17.14;54.05;98234.91;10363609;28;20053;-37
2024/01/27 19:32:22;;;;;;;1.30;1.07;;;;;;;17.13;53.92;98225.56;10363805;28;20409;-37
2024/01/27 19:37:22;;;;;;;1.55;1.00;;;;;;;17.15;53.39;98227.31;10363159;28;20037;-34
2024/01/27 19:42:23;;;;;;;1.13;1.00;;;;;;;17.15;53.97;98232.38;10362390;28;20426;-37
2024/01/27 19:47:23;;;;;;;1.17;0.90;;;;;;;17.13;53.63;98228.97;10363309;28;20536;-34
2024/01/27 19:52:23;;;;;;;1.93;0.63;;;;;;;17.14;53.73;98214.66;10363630;28;20296;-37
2024/01/27 19:57:24;;;;;;;1.23;0.80;;;;;;;17.14;53.70;98224.78;10362291;28;20822;-37
2024/01/27 20:02:24;;;;;;;0.70;0.70;;;;;;;17.13;53.86;98225.56;10362892;28;20521;-37
2024/01/27 20:07:24;;;;;;;1.00;0.80;;;;;;;17.12;53.71;98221.31;10362793;28;20406;-37
2024/01/27 20:12:25;;;;;;;0.83;0.70;;;;;;;17.11;53.87;98215.41;10361767;28;20405;-35
2024/01/27 20:17:25;;;;;;;0.90;0.80;;;;;;;17.09;53.54;98211.13;10362772;28;20045;-38
2024/01/27 20:22:25;;;;;;;1.23;0.70;;;;;;;17.11;53.66;98217.94;10362615;28;20292;-36
2024/01/27 20:27:26;;;;;;;1.03;0.83;;;;;;;17.10;53.53;98208.63;10363484;28;20124;-37
2024/01/27 20:32:26;;;;;;;1.13;0.83;;;;;;;17.09;54.23;98211.97;10368198;28;20030;-34
2024/01/27 20:37:27;;;;;;;0.70;0.65;;;;;;;17.10;54.04;98197.66;10370615;28;20044;-35
2024/01/27 20:42:28;;;;;;;0.63;0.57;;;;;;;17.10;53.57;98202.72;10368965;28;20064;-36
2024/01/27 20:47:28;;;;;;;1.20;0.80;;;;;;;17.09;53.65;98195.94;10368861;28;20034;-37
2024/01/27 20:52:29;;;;;;;1.03;0.80;;;;;;;17.10;53.45;98195.13;10369770;28;20042;-36
2024/01/27 20:57:29;;;;;;;1.00;0.90;;;;;;;17.08;53.23;98199.28;10368841;28;20513;-36
2024/01/27 21:02:30;;;;;;;1.20;0.60;;;;;;;17.09;53.78;98206.91;10368150;28;20110;-36
2024/01/27 21:07:30;;;;;;;1.27;0.70;;;;;;;17.08;53.69;98202.66;10369299;28;20037;-37
2024/01/27 21:12:30;;;;;;;1.02;0.70;;;;;;;17.08;53.45;98206.88;10367451;28;20048;-36
2024/01/27 21:17:31;;;;;;;0.70;0.70;;;;;;;17.08;53.74;98215.31;10369417;28;20050;-35
2024/01/27 21:22:31;;;;;;;1.27;0.80;;;;;;;17.07;53.46;98221.19;10367876;28;20046;-34
2024/01/27 21:27:31;;;;;;;1.00;0.83;;;;;;;17.06;53.29;98218.63;10367598;28;20104;-36
2024/01/27 21:32:32;;;;;;;1.13;1.00;;;;;;;17.06;53.51;98226.22;10367155;28;20058;-35
2024/01/27 21:37:32;;;;;;;2.00;1.27;;;;;;;17.05;53.35;98227.00;10368094;28;20064;-36
2024/01/27 21:42:35;;;;;;;0.98;0.80;;;;;;;17.05;53.16;98227.00;10365960;28;20401;-38
2024/01/27 21:47:35;;;;;;;0.70;0.50;;;;;;;17.04;53.47;98222.75;10366715;28;20030;-37
2024/01/27 21:52:36;;;;;;;1.30;1.00;;;;;;;17.05;53.54;98224.47;10367091;28;20468;-36
2024/01/27 21:57:36;;;;;;;1.43;0.77;;;;;;;17.04;53.34;98218.56;10367025;28;20490;-37
2024/01/27 22:02:37;;;;;;;0.70;0.70;;;;;;;17.03;53.73;98216.88;10366973;28;20117;-35
2024/01/27 22:07:37;;;;;;;1.05;0.80;;;;;;;17.03;53.37;98208.41;10366220;28;20040;-35
2024/01/27 22:12:38;;;;;;;1.08;0.80;;;;;;;17.02;53.21;98199.97;10362558;28;20033;-37
2024/01/27 22:17:40;;;;;;;1.03;0.90;;;;;;;17.03;53.13;98198.28;10366758;28;20072;-37
2024/01/27 22:22:41;;;;;;;1.77;1.15;;;;;;;17.03;53.53;98190.69;10364035;28;20645;-39
2024/01/27 22:27:41;;;;;;;4.00;1.10;;;;;;;17.02;53.04;98183.91;10365430;28;20040;-37
2024/01/27 22:32:41;;;;;;;0.80;0.80;;;;;;;17.02;53.03;98168.72;10365953;28;20034;-35
2024/01/27 22:37:42;;;;;;;0.73;0.73;;;;;;;17.00;52.73;98161.09;10364725;28;20056;-37
2024/01/27 22:42:42;;;;;;;0.90;0.80;;;;;;;17.00;53.09;98148.44;10364073;28;20037;-37
2024/01/27 22:47:43;;;;;;;1.60;0.90;;;;;;;17.01;53.24;98141.72;10365479;28;20277;-36
2024/01/27 22:52:43;;;;;;;0.73;0.70;;;;;;;17.00;53.66;98140.00;10364546;28;20037;-34
2024/01/27 22:57:43;;;;;;;0.90;0.70;;;;;;;17.00;53.40;98142.53;10364379;28;20442;-37
2024/01/27 23:02:44;;;;;;;1.03;0.67;;;;;;;16.99;51.55;98143.34;10364848;28;20289;-34
2024/01/27 23:07:44;;;;;;;1.03;0.70;;;;;;;16.98;52.13;98129.00;10364113;28;20037;-37
2024/01/27 23:12:44;;;;;;;1.77;0.90;;;;;;;16.97;53.16;98144.97;10363272;28;20045;-37
2024/01/27 23:17:45;;;;;;;1.13;0.90;;;;;;;16.97;52.95;98144.97;10363333;28;20054;-36